createdAt,value
2024-03-17T00:00:03.055Z,101.786
2024-03-17T00:01:03.123Z,101.714
2024-03-17T00:02:03.073Z,101.571
2024-03-17T00:03:03.102Z,101.571
2024-03-17T00:04:03.095Z,101.643
2024-03-17T00:05:03.090Z,101.714
2024-03-17T00:06:03.092Z,101.714
2024-03-17T00:07:03.119Z,101.857
2024-03-17T00:08:03.110Z,101.643
2024-03-17T00:09:03.144Z,101.786
2024-03-17T00:10:03.149Z,101.714
2024-03-17T00:11:03.152Z,101.643
2024-03-17T00:12:03.164Z,101.857
2024-03-17T00:13:03.221Z,101.643
2024-03-17T00:14:03.186Z,101.857
2024-03-17T00:15:03.190Z,101.714
2024-03-17T00:16:03.213Z,101.786
2024-03-17T00:17:03.197Z,101.786
2024-03-17T00:18:03.226Z,101.786
2024-03-17T00:19:03.219Z,101.857
2024-03-17T00:20:03.222Z,101.643
2024-03-17T00:21:03.232Z,101.714
2024-03-17T00:22:03.281Z,101.643
2024-03-17T00:23:03.295Z,101.786
2024-03-17T00:24:03.262Z,101.643
2024-03-17T00:25:03.317Z,101.786
2024-03-17T00:26:03.289Z,101.643
2024-03-17T00:27:03.293Z,101.857
2024-03-17T00:28:03.317Z,101.643
2024-03-17T00:29:03.314Z,101.714
2024-03-17T00:30:03.293Z,101.643
2024-03-17T00:31:03.325Z,101.714
2024-03-17T00:32:03.332Z,101.643
2024-03-17T00:33:03.333Z,101.786
2024-03-17T00:34:03.362Z,101.643
2024-03-17T00:35:03.356Z,101.643
2024-03-17T00:36:03.375Z,101.714
2024-03-17T00:37:03.422Z,101.857
2024-03-17T00:38:03.396Z,101.643
2024-03-17T00:39:03.404Z,101.857
2024-03-17T00:40:03.480Z,101.929
2024-03-17T00:41:03.423Z,101.714
2024-03-17T00:42:03.437Z,101.714
2024-03-17T00:43:03.462Z,101.714
2024-03-17T00:44:03.454Z,101.786
2024-03-17T00:45:03.448Z,101.786
2024-03-17T00:46:03.536Z,101.643
2024-03-17T00:47:03.472Z,101.643
2024-03-17T00:48:03.489Z,101.786
2024-03-17T00:49:03.558Z,101.929
2024-03-17T00:50:03.513Z,101.857
2024-03-17T00:51:03.533Z,101.643
2024-03-17T00:52:03.555Z,101.571
2024-03-17T00:53:03.543Z,101.786
2024-03-17T00:54:03.567Z,101.643
2024-03-17T00:55:03.630Z,101.643
2024-03-17T00:56:03.571Z,101.786
2024-03-17T00:57:03.573Z,101.786
2024-03-17T00:58:03.590Z,101.786
2024-03-17T00:59:03.589Z,101.643
2024-03-17T01:00:03.601Z,101.643
2024-03-17T01:01:03.638Z,101.786
2024-03-17T01:02:03.610Z,101.714
2024-03-17T01:03:03.622Z,101.643
2024-03-17T01:04:03.668Z,101.714
2024-03-17T01:05:03.637Z,101.929
2024-03-17T01:06:03.643Z,101.643
2024-03-17T01:07:03.684Z,101.786
2024-03-17T01:08:03.661Z,101.786
2024-03-17T01:09:03.668Z,101.786
2024-03-17T01:10:03.703Z,101.857
2024-03-17T01:11:03.672Z,101.786
2024-03-17T01:12:03.680Z,101.786
2024-03-17T01:13:03.709Z,101.714
2024-03-17T01:14:03.709Z,101.786
2024-03-17T01:15:03.701Z,101.714
2024-03-17T01:16:03.721Z,101.643
2024-03-17T01:17:03.733Z,101.643
2024-03-17T01:18:03.744Z,101.643
2024-03-17T01:19:03.756Z,101.643
2024-03-17T01:20:03.739Z,101.643
2024-03-17T01:21:03.747Z,101.643
2024-03-17T01:22:03.796Z,101.643
2024-03-17T01:23:03.782Z,101.643
2024-03-17T01:24:03.782Z,101.643
2024-03-17T01:25:03.802Z,101.643
2024-03-17T01:26:03.796Z,101.643
2024-03-17T01:27:03.807Z,101.643
2024-03-17T01:28:03.889Z,101.786
2024-03-17T01:29:03.832Z,101.786
2024-03-17T01:30:03.823Z,101.643
2024-03-17T01:31:03.867Z,101.714
2024-03-17T01:32:03.846Z,101.643
2024-03-17T01:33:03.846Z,101.643
2024-03-17T01:34:03.888Z,101.786
2024-03-17T01:35:03.867Z,101.714
2024-03-17T01:36:03.873Z,101.643
2024-03-17T01:37:03.925Z,101.714
2024-03-17T01:38:03.900Z,101.643
2024-03-17T01:39:03.913Z,101.786
2024-03-17T01:40:03.944Z,101.643
2024-03-17T01:41:03.934Z,101.643
2024-03-17T01:42:03.958Z,101.857
2024-03-17T01:43:03.974Z,101.643
2024-03-17T01:44:03.957Z,101.643
2024-03-17T01:45:03.956Z,101.714
2024-03-17T01:46:04.016Z,101.643
2024-03-17T01:47:03.966Z,101.786
2024-03-17T01:48:03.986Z,101.714
2024-03-17T01:49:03.999Z,101.714
2024-03-17T01:50:04.003Z,101.643
2024-03-17T01:51:04.041Z,101.714
2024-03-17T01:52:04.049Z,101.714
2024-03-17T01:53:04.054Z,101.643
2024-03-17T01:54:04.056Z,101.714
2024-03-17T01:55:04.076Z,101.857
2024-03-17T01:56:04.059Z,101.643
2024-03-17T01:57:04.068Z,101.643
2024-03-17T01:58:04.118Z,101.786
2024-03-17T01:59:04.076Z,101.643
2024-03-17T02:00:04.090Z,101.643
2024-03-17T02:01:04.100Z,101.714
2024-03-17T02:02:04.105Z,101.643
2024-03-17T02:03:04.119Z,101.714
2024-03-17T02:04:04.142Z,101.643
2024-03-17T02:05:07.232Z,101.643
2024-03-17T02:06:04.149Z,101.714
2024-03-17T02:07:04.164Z,101.714
2024-03-17T02:08:04.157Z,101.857
2024-03-17T02:09:04.167Z,101.643
2024-03-17T02:10:04.204Z,101.643
2024-03-17T02:11:04.176Z,101.5
2024-03-17T02:12:04.181Z,101.714
2024-03-17T02:13:04.210Z,101.857
2024-03-17T02:14:04.246Z,101.714
2024-03-17T02:15:04.218Z,101.643
2024-03-17T02:16:04.245Z,101.714
2024-03-17T02:17:04.222Z,101.714
2024-03-17T02:18:04.233Z,101.786
2024-03-17T02:19:04.270Z,101.857
2024-03-17T02:20:04.248Z,101.643
2024-03-17T02:21:04.249Z,101.714
2024-03-17T02:22:04.300Z,101.643
2024-03-17T02:23:04.278Z,101.643
2024-03-17T02:24:04.273Z,101.786
2024-03-17T02:25:04.354Z,101.643
2024-03-17T02:26:04.285Z,101.786
2024-03-17T02:27:04.293Z,101.643
2024-03-17T02:28:04.366Z,101.786
2024-03-17T02:29:04.321Z,101.643
2024-03-17T02:30:04.336Z,101.786
2024-03-17T02:31:04.366Z,101.643
2024-03-17T02:32:04.365Z,101.714
2024-03-17T02:33:04.367Z,101.643
2024-03-17T02:34:04.368Z,101.714
2024-03-17T02:35:04.372Z,101.571
2024-03-17T02:36:04.389Z,101.714
2024-03-17T02:37:04.398Z,101.643
2024-03-17T02:38:04.393Z,101.643
2024-03-17T02:39:04.402Z,101.643
2024-03-17T02:40:04.488Z,101.643
2024-03-17T02:41:04.429Z,101.5
2024-03-17T02:42:04.456Z,101.786
2024-03-17T02:43:04.478Z,101.643
2024-03-17T02:44:04.453Z,101.643
2024-03-17T02:45:04.454Z,101.857
2024-03-17T02:46:04.476Z,101.857
2024-03-17T02:47:04.469Z,101.786
2024-03-17T02:48:04.487Z,101.929
2024-03-17T02:49:04.490Z,101.714
2024-03-17T02:50:04.493Z,101.643
2024-03-17T02:51:04.514Z,101.786
2024-03-17T02:52:04.560Z,101.643
2024-03-17T02:53:04.539Z,101.643
2024-03-17T02:54:07.848Z,101.786
2024-03-17T02:55:04.570Z,101.643
2024-03-17T02:56:04.579Z,101.643
2024-03-17T02:57:04.567Z,101.929
2024-03-17T02:58:04.605Z,101.786
2024-03-17T02:59:04.576Z,101.929
2024-03-17T03:00:04.609Z,101.643
2024-03-17T03:01:04.595Z,101.786
2024-03-17T03:02:04.592Z,101.643
2024-03-17T03:03:04.603Z,101.929
2024-03-17T03:04:04.640Z,101.714
2024-03-17T03:05:04.638Z,101.643
2024-03-17T03:06:04.643Z,101.857
2024-03-17T03:07:04.649Z,101.786
2024-03-17T03:08:04.672Z,101.714
2024-03-17T03:09:04.659Z,101.643
2024-03-17T03:10:04.698Z,101.929
2024-03-17T03:11:04.677Z,101.714
2024-03-17T03:12:04.683Z,101.929
2024-03-17T03:13:04.720Z,101.929
2024-03-17T03:14:04.714Z,101.714
2024-03-17T03:15:04.699Z,101.786
2024-03-17T03:16:04.728Z,101.786
2024-03-17T03:17:04.720Z,101.857
2024-03-17T03:18:04.731Z,101.714
2024-03-17T03:19:04.782Z,101.714
2024-03-17T03:20:04.747Z,101.857
2024-03-17T03:21:04.748Z,101.714
2024-03-17T03:22:04.772Z,101.643
2024-03-17T03:23:04.771Z,101.857
2024-03-17T03:24:04.804Z,101.929
2024-03-17T03:25:04.786Z,101.857
2024-03-17T03:26:04.796Z,101.786
2024-03-17T03:27:04.783Z,101.786
2024-03-17T03:28:04.807Z,101.857
2024-03-17T03:29:04.812Z,101.857
2024-03-17T03:30:04.831Z,101.714
2024-03-17T03:31:04.857Z,101.786
2024-03-17T03:32:04.859Z,101.643
2024-03-17T03:33:06.566Z,101.786
2024-03-17T03:34:04.882Z,101.857
2024-03-17T03:35:04.876Z,101.786
2024-03-17T03:36:04.892Z,101.714
2024-03-17T03:37:04.895Z,101.714
2024-03-17T03:38:04.918Z,101.857
2024-03-17T03:39:04.916Z,101.857
2024-03-17T03:40:04.903Z,101.786
2024-03-17T03:41:04.903Z,101.643
2024-03-17T03:42:04.911Z,101.857
2024-03-17T03:43:04.945Z,101.714
2024-03-17T03:44:04.931Z,101.929
2024-03-17T03:45:04.942Z,101.929
2024-03-17T03:46:05.011Z,101.857
2024-03-17T03:47:04.982Z,101.786
2024-03-17T03:48:04.973Z,101.929
2024-03-17T03:49:04.976Z,101.643
2024-03-17T03:50:04.987Z,101.786
2024-03-17T03:51:04.986Z,101.857
2024-03-17T03:52:05.025Z,101.714
2024-03-17T03:53:05.003Z,101.571
2024-03-17T03:54:05.011Z,101.714
2024-03-17T03:55:05.038Z,101.714
2024-03-17T03:56:05.037Z,101.571
2024-03-17T03:57:05.046Z,101.714
2024-03-17T03:58:05.054Z,101.714
2024-03-17T03:59:05.062Z,101.857
2024-03-17T04:00:05.072Z,101.714
2024-03-17T04:01:05.103Z,101.857
2024-03-17T04:02:05.091Z,101.857
2024-03-17T04:03:05.092Z,101.714
2024-03-17T04:04:05.101Z,101.714
2024-03-17T04:05:05.101Z,101.714
2024-03-17T04:06:05.140Z,101.857
2024-03-17T04:07:05.159Z,101.857
2024-03-17T04:08:05.131Z,101.786
2024-03-17T04:09:05.142Z,101.714
2024-03-17T04:10:05.168Z,101.929
2024-03-17T04:11:05.175Z,101.929
2024-03-17T04:12:05.175Z,101.929
2024-03-17T04:13:05.283Z,101.643
2024-03-17T04:14:05.200Z,101.857
2024-03-17T04:15:05.205Z,101.857
2024-03-17T04:16:05.241Z,101.929
2024-03-17T04:17:05.204Z,101.929
2024-03-17T04:18:05.215Z,101.786
2024-03-17T04:19:05.223Z,101.857
2024-03-17T04:20:05.264Z,101.786
2024-03-17T04:21:05.252Z,101.929
2024-03-17T04:22:05.282Z,101.857
2024-03-17T04:23:05.271Z,101.857
2024-03-17T04:24:05.277Z,101.857
2024-03-17T04:25:05.302Z,101.929
2024-03-17T04:26:05.287Z,101.714
2024-03-17T04:27:05.300Z,101.643
2024-03-17T04:28:05.317Z,101.929
2024-03-17T04:29:05.333Z,101.929
2024-03-17T04:30:05.309Z,101.929
2024-03-17T04:31:05.353Z,101.929
2024-03-17T04:32:05.338Z,101.929
2024-03-17T04:33:05.355Z,101.786
2024-03-17T04:34:05.401Z,101.929
2024-03-17T04:35:05.375Z,101.929
2024-03-17T04:36:05.392Z,101.929
2024-03-17T04:37:05.466Z,101.929
2024-03-17T04:38:05.413Z,101.929
2024-03-17T04:39:05.407Z,101.929
2024-03-17T04:40:05.434Z,101.929
2024-03-17T04:41:05.411Z,101.786
2024-03-17T04:42:05.410Z,101.929
2024-03-17T04:43:05.450Z,101.857
2024-03-17T04:44:05.436Z,101.929
2024-03-17T04:45:05.441Z,101.929
2024-03-17T04:46:05.516Z,101.929
2024-03-17T04:47:05.471Z,101.929
2024-03-17T04:48:05.493Z,101.786
2024-03-17T04:49:05.513Z,101.929
2024-03-17T04:50:05.506Z,101.929
2024-03-17T04:51:05.497Z,101.929
2024-03-17T04:52:05.530Z,101.929
2024-03-17T04:53:05.501Z,101.929
2024-03-17T04:54:05.505Z,101.857
2024-03-17T04:55:05.526Z,101.786
2024-03-17T04:56:05.535Z,101.929
2024-03-17T04:57:05.570Z,101.857
2024-03-17T04:58:05.570Z,102
2024-03-17T04:59:05.591Z,101.786
2024-03-17T05:00:05.589Z,101.857
2024-03-17T05:01:05.618Z,101.929
2024-03-17T05:02:05.624Z,101.714
2024-03-17T05:03:05.624Z,102
2024-03-17T05:04:05.631Z,101.857
2024-03-17T05:05:05.622Z,101.857
2024-03-17T05:06:05.637Z,102
2024-03-17T05:07:05.636Z,102
2024-03-17T05:08:05.635Z,101.929
2024-03-17T05:09:05.648Z,101.857
2024-03-17T05:10:07.428Z,101.857
2024-03-17T05:11:05.698Z,101.857
2024-03-17T05:12:05.680Z,101.857
2024-03-17T05:13:05.702Z,101.714
2024-03-17T05:14:05.711Z,101.857
2024-03-17T05:15:05.713Z,101.786
2024-03-17T05:16:05.720Z,101.857
2024-03-17T05:17:05.731Z,101.857
2024-03-17T05:18:05.733Z,101.929
2024-03-17T05:19:05.741Z,101.929
2024-03-17T05:20:05.771Z,101.786
2024-03-17T05:21:05.757Z,102
2024-03-17T05:22:05.772Z,102
2024-03-17T05:23:05.771Z,101.929
2024-03-17T05:24:05.790Z,101.929
2024-03-17T05:25:05.827Z,101.929
2024-03-17T05:26:05.825Z,101.857
2024-03-17T05:27:05.810Z,101.929
2024-03-17T05:28:05.826Z,101.929
2024-03-17T05:29:05.832Z,101.929
2024-03-17T05:30:05.851Z,101.929
2024-03-17T05:31:05.856Z,101.929
2024-03-17T05:32:05.845Z,101.929
2024-03-17T05:33:05.866Z,101.929
2024-03-17T05:34:05.878Z,101.929
2024-03-17T05:35:05.873Z,101.929
2024-03-17T05:36:05.878Z,101.929
2024-03-17T05:37:08.157Z,101.929
2024-03-17T05:38:05.909Z,101.929
2024-03-17T05:39:05.951Z,102
2024-03-17T05:40:05.933Z,101.929
2024-03-17T05:41:05.949Z,101.929
2024-03-17T05:42:05.953Z,101.857
2024-03-17T05:43:05.960Z,101.929
2024-03-17T05:44:05.966Z,102
2024-03-17T05:45:05.974Z,101.929
2024-03-17T05:46:05.981Z,101.929
2024-03-17T05:47:05.982Z,101.929
2024-03-17T05:48:06.000Z,101.929
2024-03-17T05:49:05.988Z,101.929
2024-03-17T05:50:05.996Z,101.929
2024-03-17T05:51:06.019Z,101.786
2024-03-17T05:52:06.022Z,102
2024-03-17T05:53:06.082Z,101.929
2024-03-17T05:54:06.033Z,102
2024-03-17T05:55:06.044Z,102
2024-03-17T05:56:06.056Z,101.929
2024-03-17T05:57:06.063Z,101.929
2024-03-17T05:58:06.074Z,101.857
2024-03-17T05:59:06.073Z,101.857
2024-03-17T06:00:06.080Z,101.929
2024-03-17T06:01:06.080Z,102
2024-03-17T06:02:06.103Z,102
2024-03-17T06:03:06.121Z,101.929
2024-03-17T06:04:08.600Z,101.929
2024-03-17T06:05:06.136Z,102
2024-03-17T06:06:06.143Z,102
2024-03-17T06:07:06.172Z,102
2024-03-17T06:08:06.161Z,102
2024-03-17T06:09:06.181Z,101.857
2024-03-17T06:10:07.968Z,101.857
2024-03-17T06:11:06.186Z,101.714
2024-03-17T06:12:06.183Z,102.071
2024-03-17T06:13:06.189Z,101.857
2024-03-17T06:14:06.196Z,101.857
2024-03-17T06:15:06.204Z,101.929
2024-03-17T06:16:06.253Z,102.071
2024-03-17T06:17:06.238Z,101.929
2024-03-17T06:18:06.251Z,102.071
2024-03-17T06:19:06.256Z,101.786
2024-03-17T06:20:06.278Z,101.929
2024-03-17T06:21:06.318Z,101.929
2024-03-17T06:22:06.296Z,101.786
2024-03-17T06:23:06.304Z,102
2024-03-17T06:24:06.306Z,102
2024-03-17T06:25:06.309Z,101.857
2024-03-17T06:26:06.317Z,101.857
2024-03-17T06:27:06.329Z,102
2024-03-17T06:28:06.333Z,101.857
2024-03-17T06:29:06.343Z,101.857
2024-03-17T06:30:06.375Z,102
2024-03-17T06:31:06.372Z,101.929
2024-03-17T06:32:06.382Z,101.786
2024-03-17T06:33:06.402Z,101.714
2024-03-17T06:34:06.403Z,102
2024-03-17T06:35:06.420Z,101.929
2024-03-17T06:36:06.422Z,101.929
2024-03-17T06:37:06.421Z,101.929
2024-03-17T06:38:06.433Z,102
2024-03-17T06:39:06.431Z,101.857
2024-03-17T06:40:06.437Z,101.929
2024-03-17T06:41:06.459Z,101.929
2024-03-17T06:42:06.460Z,101.929
2024-03-17T06:43:06.467Z,101.929
2024-03-17T06:44:06.511Z,102
2024-03-17T06:45:06.489Z,101.929
2024-03-17T06:46:06.493Z,101.929
2024-03-17T06:47:06.507Z,101.929
2024-03-17T06:48:06.507Z,101.929
2024-03-17T06:49:06.541Z,102
2024-03-17T06:50:06.530Z,101.857
2024-03-17T06:51:06.540Z,101.929
2024-03-17T06:52:06.540Z,101.857
2024-03-17T06:53:06.537Z,101.929
2024-03-17T06:54:06.549Z,102
2024-03-17T06:55:06.565Z,101.929
2024-03-17T06:56:06.583Z,102.071
2024-03-17T06:57:06.589Z,101.786
2024-03-17T06:58:06.652Z,101.929
2024-03-17T06:59:06.612Z,101.786
2024-03-17T07:00:06.630Z,102.143
2024-03-17T07:01:06.638Z,102.071
2024-03-17T07:02:06.637Z,101.857
2024-03-17T07:03:06.653Z,101.857
2024-03-17T07:04:06.650Z,101.929
2024-03-17T07:05:06.653Z,102
2024-03-17T07:06:06.666Z,101.857
2024-03-17T07:07:06.673Z,102.071
2024-03-17T07:08:06.683Z,102.214
2024-03-17T07:09:06.697Z,102
2024-03-17T07:10:06.714Z,101.929
2024-03-17T07:11:06.717Z,101.786
2024-03-17T07:12:06.719Z,101.929
2024-03-17T07:13:06.737Z,101.929
2024-03-17T07:14:07.764Z,101.929
2024-03-17T07:15:06.761Z,101.857
2024-03-17T07:16:06.760Z,101.857
2024-03-17T07:17:06.771Z,101.929
2024-03-17T07:18:06.779Z,101.929
2024-03-17T07:19:06.769Z,101.929
2024-03-17T07:20:06.780Z,102.071
2024-03-17T07:21:06.805Z,102.071
2024-03-17T07:22:06.808Z,102
2024-03-17T07:23:06.817Z,101.929
2024-03-17T07:24:06.831Z,101.929
2024-03-17T07:25:06.847Z,101.929
2024-03-17T07:26:06.856Z,102
2024-03-17T07:27:06.849Z,101.929
2024-03-17T07:28:06.857Z,101.857
2024-03-17T07:29:06.868Z,102
2024-03-17T07:30:06.867Z,101.857
2024-03-17T07:31:06.894Z,102
2024-03-17T07:32:06.886Z,102.071
2024-03-17T07:33:06.904Z,101.857
2024-03-17T07:34:06.897Z,102
2024-03-17T07:35:06.921Z,102.071
2024-03-17T07:36:06.935Z,101.929
2024-03-17T07:37:06.943Z,102.143
2024-03-17T07:38:06.941Z,102.071
2024-03-17T07:39:06.949Z,102
2024-03-17T07:40:06.976Z,102
2024-03-17T07:41:06.958Z,102.071
2024-03-17T07:42:06.975Z,101.786
2024-03-17T07:43:06.976Z,101.857
2024-03-17T07:44:06.977Z,101.857
2024-03-17T07:45:07.004Z,101.929
2024-03-17T07:46:06.976Z,102
2024-03-17T07:47:09.711Z,102
2024-03-17T07:48:07.004Z,102
2024-03-17T07:49:07.039Z,101.929
2024-03-17T07:50:07.044Z,101.929
2024-03-17T07:51:07.048Z,101.929
2024-03-17T07:52:07.051Z,101.929
2024-03-17T07:53:07.058Z,102
2024-03-17T07:54:07.082Z,101.929
2024-03-17T07:55:07.068Z,102
2024-03-17T07:56:07.094Z,101.857
2024-03-17T07:57:07.077Z,102.071
2024-03-17T07:58:07.079Z,102
2024-03-17T07:59:07.092Z,101.857
2024-03-17T08:00:07.105Z,102
2024-03-17T08:01:07.111Z,102
2024-03-17T08:02:07.126Z,102.071
2024-03-17T08:03:07.170Z,101.929
2024-03-17T08:04:07.151Z,101.786
2024-03-17T08:05:07.157Z,102.143
2024-03-17T08:06:07.173Z,102.143
2024-03-17T08:07:07.169Z,101.929
2024-03-17T08:08:07.188Z,101.929
2024-03-17T08:09:07.182Z,101.857
2024-03-17T08:10:07.203Z,102
2024-03-17T08:11:07.188Z,101.857
2024-03-17T08:12:07.188Z,102.143
2024-03-17T08:13:07.210Z,101.786
2024-03-17T08:14:07.222Z,101.857
2024-03-17T08:15:07.230Z,101.857
2024-03-17T08:16:07.233Z,101.857
2024-03-17T08:17:07.278Z,101.786
2024-03-17T08:18:07.252Z,102
2024-03-17T08:19:07.273Z,102
2024-03-17T08:20:07.276Z,101.857
2024-03-17T08:21:07.277Z,102
2024-03-17T08:22:07.304Z,102
2024-03-17T08:23:07.284Z,102
2024-03-17T08:24:07.291Z,102
2024-03-17T08:25:07.302Z,101.857
2024-03-17T08:26:07.313Z,101.929
2024-03-17T08:27:07.332Z,102.071
2024-03-17T08:28:07.356Z,102.143
2024-03-17T08:29:07.351Z,101.857
2024-03-17T08:30:07.455Z,102
2024-03-17T08:31:07.373Z,101.857
2024-03-17T08:32:07.370Z,102
2024-03-17T08:33:07.373Z,102
2024-03-17T08:34:07.373Z,101.857
2024-03-17T08:35:07.381Z,102.071
2024-03-17T08:36:07.393Z,101.929
2024-03-17T08:37:07.388Z,102.071
2024-03-17T08:38:07.423Z,102.143
2024-03-17T08:39:07.417Z,102
2024-03-17T08:40:07.419Z,102
2024-03-17T08:41:07.433Z,102
2024-03-17T08:42:07.439Z,102
2024-03-17T08:43:07.497Z,102.071
2024-03-17T08:44:07.449Z,102
2024-03-17T08:45:08.416Z,101.857
2024-03-17T08:46:07.460Z,101.857
2024-03-17T08:47:07.460Z,101.929
2024-03-17T08:48:07.469Z,102.071
2024-03-17T08:49:07.474Z,101.929
2024-03-17T08:50:07.496Z,102.143
2024-03-17T08:51:07.489Z,102.071
2024-03-17T08:52:07.502Z,102
2024-03-17T08:53:07.517Z,102
2024-03-17T08:54:07.519Z,102.143
2024-03-17T08:55:07.530Z,102.071
2024-03-17T08:56:07.537Z,102.143
2024-03-17T08:57:07.543Z,102
2024-03-17T08:58:07.545Z,102.071
2024-03-17T08:59:07.571Z,101.929
2024-03-17T09:00:07.562Z,102.071
2024-03-17T09:01:07.558Z,102
2024-03-17T09:02:07.566Z,102.143
2024-03-17T09:03:07.581Z,102.143
2024-03-17T09:04:07.621Z,102.071
2024-03-17T09:05:07.597Z,102.071
2024-03-17T09:06:07.608Z,102.071
2024-03-17T09:07:07.609Z,101.929
2024-03-17T09:08:07.622Z,102.071
2024-03-17T09:09:07.624Z,101.929
2024-03-17T09:10:07.631Z,102.071
2024-03-17T09:11:07.642Z,102
2024-03-17T09:12:07.640Z,102.143
2024-03-17T09:13:07.684Z,102
2024-03-17T09:14:07.647Z,101.929
2024-03-17T09:15:07.663Z,102.143
2024-03-17T09:16:07.667Z,102
2024-03-17T09:17:07.671Z,101.786
2024-03-17T09:18:07.703Z,101.929
2024-03-17T09:19:07.699Z,101.857
2024-03-17T09:20:07.719Z,102.071
2024-03-17T09:21:07.719Z,101.929
2024-03-17T09:22:07.733Z,102.071
2024-03-17T09:23:07.738Z,102
2024-03-17T09:24:07.748Z,102
2024-03-17T09:25:07.750Z,102.143
2024-03-17T09:26:07.744Z,102.071
2024-03-17T09:27:07.764Z,101.857
2024-03-17T09:28:07.762Z,102.071
2024-03-17T09:29:07.778Z,102.071
2024-03-17T09:30:07.782Z,102
2024-03-17T09:31:07.792Z,102.071
2024-03-17T09:32:07.810Z,101.929
2024-03-17T09:33:07.810Z,101.857
2024-03-17T09:34:07.822Z,102
2024-03-17T09:35:07.878Z,102.143
2024-03-17T09:36:07.833Z,102.071
2024-03-17T09:37:07.842Z,102.071
2024-03-17T09:38:07.848Z,102
2024-03-17T09:39:07.848Z,101.929
2024-03-17T09:40:07.860Z,102
2024-03-17T09:41:07.878Z,102.214
2024-03-17T09:42:07.879Z,102.071
2024-03-17T09:43:07.888Z,101.929
2024-03-17T09:44:07.897Z,102
2024-03-17T09:45:07.909Z,102
2024-03-17T09:46:07.932Z,101.929
2024-03-17T09:47:07.938Z,102.071
2024-03-17T09:48:07.931Z,102.143
2024-03-17T09:49:07.942Z,101.929
2024-03-17T09:50:07.948Z,102.071
2024-03-17T09:51:07.956Z,102.071
2024-03-17T09:52:07.962Z,101.929
2024-03-17T09:53:07.958Z,102
2024-03-17T09:54:07.965Z,102.071
2024-03-17T09:55:07.989Z,102.071
2024-03-17T09:56:07.998Z,102
2024-03-17T09:57:08.007Z,102
2024-03-17T09:58:08.863Z,101.929
2024-03-17T09:59:08.030Z,101.929
2024-03-17T10:00:08.052Z,102
2024-03-17T10:01:08.046Z,102.071
2024-03-17T10:02:08.061Z,102.071
2024-03-17T10:03:08.059Z,102
2024-03-17T10:04:08.056Z,102.143
2024-03-17T10:05:08.059Z,102.143
2024-03-17T10:06:08.072Z,102.071
2024-03-17T10:07:08.070Z,101.857
2024-03-17T10:08:08.107Z,102
2024-03-17T10:09:08.122Z,102
2024-03-17T10:10:08.092Z,101.857
2024-03-17T10:11:08.108Z,102.143
2024-03-17T10:12:08.123Z,102.214
2024-03-17T10:13:08.126Z,102.143
2024-03-17T10:14:08.241Z,102
2024-03-17T10:15:08.147Z,101.857
2024-03-17T10:16:08.147Z,102
2024-03-17T10:17:08.179Z,102
2024-03-17T10:18:08.154Z,102.071
2024-03-17T10:19:08.167Z,102
2024-03-17T10:20:08.188Z,101.929
2024-03-17T10:21:08.186Z,101.857
2024-03-17T10:22:08.191Z,102
2024-03-17T10:23:08.215Z,102
2024-03-17T10:24:08.215Z,102.143
2024-03-17T10:25:08.226Z,102.071
2024-03-17T10:26:08.231Z,102
2024-03-17T10:27:08.241Z,101.929
2024-03-17T10:28:08.250Z,102.071
2024-03-17T10:29:08.254Z,102.214
2024-03-17T10:30:08.249Z,102.214
2024-03-17T10:31:08.272Z,102
2024-03-17T10:32:08.269Z,102
2024-03-17T10:33:08.289Z,102.071
2024-03-17T10:34:11.926Z,101.929
2024-03-17T10:35:08.301Z,102.071
2024-03-17T10:36:08.307Z,102
2024-03-17T10:37:08.314Z,101.857
2024-03-17T10:38:08.316Z,102.071
2024-03-17T10:39:08.326Z,101.929
2024-03-17T10:40:08.324Z,102
2024-03-17T10:41:08.328Z,102
2024-03-17T10:42:08.341Z,102.071
2024-03-17T10:43:08.352Z,102
2024-03-17T10:44:08.366Z,102
2024-03-17T10:45:08.367Z,102.071
2024-03-17T10:46:08.384Z,102.071
2024-03-17T10:47:08.384Z,102.071
2024-03-17T10:48:08.392Z,101.929
2024-03-17T10:49:08.394Z,102.143
2024-03-17T10:50:08.409Z,102
2024-03-17T10:51:08.415Z,102.071
2024-03-17T10:52:08.411Z,102
2024-03-17T10:53:08.417Z,102
2024-03-17T10:54:08.415Z,101.929
2024-03-17T10:55:08.420Z,102.071
2024-03-17T10:56:08.444Z,102.143
2024-03-17T10:57:08.462Z,101.857
2024-03-17T10:58:08.458Z,102
2024-03-17T10:59:08.463Z,102.143
2024-03-17T11:00:08.482Z,102
2024-03-17T11:01:08.472Z,102
2024-03-17T11:02:10.431Z,101.929
2024-03-17T11:03:08.480Z,102.143
2024-03-17T11:04:08.479Z,102.214
2024-03-17T11:05:08.508Z,102.143
2024-03-17T11:06:08.494Z,102.143
2024-03-17T11:07:08.503Z,102.071
2024-03-17T11:08:12.029Z,102
2024-03-17T11:09:08.534Z,102.143
2024-03-17T11:10:08.594Z,102.071
2024-03-17T11:11:08.533Z,102
2024-03-17T11:12:08.539Z,102
2024-03-17T11:13:08.546Z,102.143
2024-03-17T11:14:08.560Z,102.143
2024-03-17T11:15:08.563Z,102.071
2024-03-17T11:16:08.571Z,102.071
2024-03-17T11:17:08.584Z,102
2024-03-17T11:18:08.579Z,102
2024-03-17T11:19:08.585Z,102
2024-03-17T11:20:08.608Z,102
2024-03-17T11:21:08.613Z,101.929
2024-03-17T11:22:08.618Z,101.929
2024-03-17T11:23:08.632Z,102.071
2024-03-17T11:24:08.638Z,102.143
2024-03-17T11:25:08.636Z,102.071
2024-03-17T11:26:08.647Z,102.071
2024-03-17T11:27:08.644Z,102.214
2024-03-17T11:28:08.670Z,102.071
2024-03-17T11:29:08.658Z,102.214
2024-03-17T11:30:08.664Z,102
2024-03-17T11:31:08.675Z,102.071
2024-03-17T11:32:11.851Z,102.143
2024-03-17T11:33:08.678Z,102.214
2024-03-17T11:34:08.688Z,102.143
2024-03-17T11:35:08.705Z,102.143
2024-03-17T11:36:08.707Z,102.143
2024-03-17T11:37:08.744Z,102.214
2024-03-17T11:38:09.804Z,102
2024-03-17T11:39:08.728Z,102.143
2024-03-17T11:40:08.744Z,102.143
2024-03-17T11:41:08.743Z,102.143
2024-03-17T11:42:08.759Z,102.143
2024-03-17T11:43:08.754Z,102
2024-03-17T11:44:08.757Z,102.143
2024-03-17T11:45:08.765Z,102.143
2024-03-17T11:46:08.766Z,102
2024-03-17T11:47:09.652Z,102.143
2024-03-17T11:48:08.788Z,102
2024-03-17T11:49:08.800Z,102
2024-03-17T11:50:11.160Z,102.143
2024-03-17T11:51:08.832Z,102
2024-03-17T11:52:08.816Z,102
2024-03-17T11:53:08.824Z,102
2024-03-17T11:54:08.830Z,102.143
2024-03-17T11:55:08.836Z,102
2024-03-17T11:56:12.226Z,102.143
2024-03-17T11:57:08.843Z,102.143
2024-03-17T11:58:08.857Z,102.143
2024-03-17T11:59:08.869Z,102.071
2024-03-17T12:00:08.876Z,102.214
2024-03-17T12:01:08.884Z,102.143
2024-03-17T12:02:11.786Z,102.214
2024-03-17T12:03:08.903Z,102.143
2024-03-17T12:04:08.917Z,102.214
2024-03-17T12:05:08.936Z,102.143
2024-03-17T12:06:08.940Z,102.214
2024-03-17T12:07:08.936Z,102
2024-03-17T12:08:08.940Z,102.143
2024-03-17T12:09:08.938Z,102.143
2024-03-17T12:10:08.959Z,102.143
2024-03-17T12:11:08.960Z,102.143
2024-03-17T12:12:08.972Z,102.143
2024-03-17T12:13:08.980Z,102.071
2024-03-17T12:14:10.696Z,102.214
2024-03-17T12:15:08.991Z,102.071
2024-03-17T12:16:08.998Z,102.143
2024-03-17T12:17:09.006Z,102.143
2024-03-17T12:18:09.015Z,102
2024-03-17T12:19:09.043Z,102.071
2024-03-17T12:20:12.358Z,102.071